Strawn, Texas
Current Conditions -  °F | °C
As of 5:55 AM on Friday 19 Dec 2014 (Local Time) from KBKD Reporting Station
Haze Haze  
Wind Chill: 46°   Ceiling: 300
Heat Index: 46°   Visibility: 5mi
Dew Point: 46°   Wind: 0mph
Humidity: 98%   Direction: NA
Pressure: 30.16"   Gusts: NA
Location:  32.55°N, 98.5°W
Report Text: KBKD 191155Z AUTO 00000KT 5SM BR OVC003 08/08 A3016 RMK AO2 LTG DSNT SE P0001 60001 70001 T00780075 10083 20078
Loading
Personal Weather Stations






























Interactive Weather Map New forecast layout! Learn more

10-Day Weather Forecast

Advertisements
Track Severe Weather on mobile